DAL5454 KRDU-KLGA
Flight info
| Callsign | DAL5454 |
|---|---|
| Flight time | N/A |
| Altitude | 39000 |
| Route | BEXGO5 BOUSY GEARS Q87 HURTS PROUD2 |
| Aircraft | CRJ9/M-V/N |
Departure
| Time | 2026-05-06 17:41 |
|---|---|
| Airport | Raleigh-Durham International Airport (KRDU) |
Arrival
| Time | N/A |
|---|---|
| Airport | LaGuardia Airport (KLGA) |
| Time | Latitude | Longitude | Altitude | Speed | Heading |
|---|---|---|---|---|---|
| 2026-05-06 17:20 | 35.87669 | -78.79529 | 390 ft | 0 kts | 135° |
| 2026-05-06 17:30 | 35.87672 | -78.79532 | 390 ft | 2 kts | 135° |
| 2026-05-06 17:30 | 35.87684 | -78.79548 | 390 ft | 2 kts | 135° |
| 2026-05-06 17:30 | 35.87695 | -78.79563 | 390 ft | 3 kts | 118° |
| 2026-05-06 17:31 | 35.87698 | -78.79582 | 390 ft | 3 kts | 75° |
| 2026-05-06 17:31 | 35.87689 | -78.79602 | 390 ft | 3 kts | 49° |
| 2026-05-06 17:31 | 35.87682 | -78.79611 | 390 ft | 0 kts | 45° |
| 2026-05-06 17:33 | 35.87686 | -78.79606 | 390 ft | 2 kts | 45° |
| 2026-05-06 17:33 | 35.87706 | -78.79582 | 390 ft | 6 kts | 45° |
| 2026-05-06 17:34 | 35.87743 | -78.79536 | 390 ft | 9 kts | 45° |
| 2026-05-06 17:34 | 35.87796 | -78.79470 | 390 ft | 13 kts | 45° |
| 2026-05-06 17:34 | 35.87865 | -78.79386 | 390 ft | 15 kts | 45° |
| 2026-05-06 17:34 | 35.87938 | -78.79294 | 390 ft | 15 kts | 45° |
| 2026-05-06 17:35 | 35.88014 | -78.79200 | 390 ft | 16 kts | 45° |
| 2026-05-06 17:35 | 35.88092 | -78.79104 | 390 ft | 16 kts | 45° |
| 2026-05-06 17:35 | 35.88171 | -78.79003 | 390 ft | 17 kts | 45° |
| 2026-05-06 17:36 | 35.88337 | -78.78798 | 390 ft | 17 kts | 45° |
| 2026-05-06 17:36 | 35.88422 | -78.78692 | 390 ft | 18 kts | 45° |
| 2026-05-06 17:36 | 35.88508 | -78.78586 | 390 ft | 18 kts | 45° |
| 2026-05-06 17:36 | 35.88596 | -78.78477 | 390 ft | 18 kts | 45° |
| 2026-05-06 17:37 | 35.88685 | -78.78367 | 390 ft | 18 kts | 45° |
| 2026-05-06 17:37 | 35.88773 | -78.78257 | 390 ft | 18 kts | 44° |
| 2026-05-06 17:37 | 35.88865 | -78.78145 | 390 ft | 19 kts | 45° |
| 2026-05-06 17:37 | 35.88957 | -78.78030 | 390 ft | 19 kts | 50° |
| 2026-05-06 17:38 | 35.89013 | -78.77885 | 390 ft | 19 kts | 52° |
| 2026-05-06 17:38 | 35.89104 | -78.77770 | 390 ft | 19 kts | 45° |
| 2026-05-06 17:38 | 35.89197 | -78.77655 | 390 ft | 19 kts | 45° |
| 2026-05-06 17:38 | 35.89270 | -78.77689 | 390 ft | 13 kts | 315° |
| 2026-05-06 17:39 | 35.89289 | -78.77712 | 390 ft | 0 kts | 315° |
| 2026-05-06 17:39 | 35.89289 | -78.77713 | 390 ft | 0 kts | 315° |
| 2026-05-06 17:39 | 35.89297 | -78.77722 | 390 ft | 3 kts | 315° |
| 2026-05-06 17:39 | 35.89322 | -78.77752 | 391 ft | 7 kts | 315° |
| 2026-05-06 17:40 | 35.89357 | -78.77809 | 391 ft | 10 kts | 279° |
| 2026-05-06 17:40 | 35.89281 | -78.77931 | 390 ft | 41 kts | 225° |
| 2026-05-06 17:40 | 35.88873 | -78.78437 | 391 ft | 126 kts | 224° |
| 2026-05-06 17:40 | 35.88120 | -78.79358 | 656 ft | 171 kts | 224° |
| 2026-05-06 17:41 | 35.87309 | -78.80449 | 1505 ft | 169 kts | 245° |
| 2026-05-06 17:41 | 35.87341 | -78.81841 | 2447 ft | 173 kts | 296° |
| 2026-05-06 17:41 | 35.88368 | -78.82693 | 3264 ft | 193 kts | 346° |
| 2026-05-06 17:41 | 35.89723 | -78.82315 | 4014 ft | 212 kts | 30° |
| 2026-05-06 17:42 | 35.90979 | -78.81236 | 4613 ft | 231 kts | 29° |
| 2026-05-06 17:42 | 35.92372 | -78.80093 | 5240 ft | 250 kts | 30° |
| 2026-05-06 17:42 | 35.93853 | -78.78838 | 5958 ft | 266 kts | 31° |
| 2026-05-06 17:42 | 35.95356 | -78.77477 | 6905 ft | 271 kts | 33° |
| 2026-05-06 17:43 | 35.96814 | -78.75971 | 7813 ft | 278 kts | 37° |
| 2026-05-06 17:43 | 35.98260 | -78.74332 | 8678 ft | 286 kts | 38° |
| 2026-05-06 17:43 | 35.99713 | -78.72655 | 9535 ft | 292 kts | 38° |
| 2026-05-06 17:43 | 36.01269 | -78.70872 | 10090 ft | 316 kts | 37° |
| 2026-05-06 17:44 | 36.02937 | -78.68999 | 10544 ft | 339 kts | 37° |
| 2026-05-06 17:44 | 36.04723 | -78.67028 | 11295 ft | 348 kts | 37° |
| 2026-05-06 17:44 | 36.06539 | -78.65008 | 12235 ft | 352 kts | 37° |
| 2026-05-06 17:44 | 36.08362 | -78.62959 | 13171 ft | 356 kts | 37° |
| 2026-05-06 17:45 | 36.10199 | -78.60887 | 14105 ft | 359 kts | 37° |
| 2026-05-06 17:45 | 36.12051 | -78.58794 | 15006 ft | 361 kts | 38° |
| 2026-05-06 17:45 | 36.13912 | -78.56688 | 15894 ft | 364 kts | 38° |
| 2026-05-06 17:45 | 36.15785 | -78.54567 | 16753 ft | 367 kts | 38° |
| 2026-05-06 17:46 | 36.17675 | -78.52425 | 17626 ft | 370 kts | 39° |
| 2026-05-06 17:46 | 36.19586 | -78.50259 | 18466 ft | 374 kts | 39° |
| 2026-05-06 17:46 | 36.21509 | -78.48078 | 19201 ft | 377 kts | 39° |
| 2026-05-06 17:46 | 36.23457 | -78.45870 | 19930 ft | 381 kts | 39° |
| 2026-05-06 17:47 | 36.25423 | -78.43641 | 20658 ft | 385 kts | 39° |
| 2026-05-06 17:47 | 36.27416 | -78.41396 | 21363 ft | 389 kts | 38° |
| 2026-05-06 17:47 | 36.29535 | -78.39186 | 21547 ft | 410 kts | 34° |
| 2026-05-06 17:47 | 36.31889 | -78.37011 | 21675 ft | 430 kts | 32° |
| 2026-05-06 17:48 | 36.34332 | -78.34840 | 22424 ft | 434 kts | 32° |
| 2026-05-06 17:48 | 36.36791 | -78.32634 | 23154 ft | 439 kts | 33° |
| 2026-05-06 17:48 | 36.39249 | -78.30351 | 23812 ft | 444 kts | 33° |
| 2026-05-06 17:48 | 36.41696 | -78.28071 | 24375 ft | 448 kts | 33° |
| 2026-05-06 17:49 | 36.44207 | -78.25737 | 24933 ft | 453 kts | 33° |
| 2026-05-06 17:49 | 36.46742 | -78.23374 | 25471 ft | 457 kts | 33° |
| 2026-05-06 17:49 | 36.49301 | -78.20996 | 26023 ft | 462 kts | 32° |
| 2026-05-06 17:49 | 36.51886 | -78.18577 | 26526 ft | 468 kts | 33° |
| 2026-05-06 17:50 | 36.54488 | -78.16088 | 26815 ft | 476 kts | 33° |
| 2026-05-06 17:50 | 36.57147 | -78.13577 | 26950 ft | 484 kts | 32° |
| 2026-05-06 17:50 | 36.59844 | -78.11039 | 27021 ft | 489 kts | 32° |
| 2026-05-06 17:50 | 36.62570 | -78.08469 | 27045 ft | 493 kts | 32° |
| 2026-05-06 17:51 | 36.65301 | -78.05887 | 27058 ft | 491 kts | 32° |
| 2026-05-06 17:51 | 36.68021 | -78.03313 | 27056 ft | 491 kts | 32° |
| 2026-05-06 17:51 | 36.70744 | -78.00733 | 27060 ft | 491 kts | 32° |
| 2026-05-06 17:51 | 36.73463 | -77.98158 | 27058 ft | 491 kts | 32° |
| 2026-05-06 17:52 | 36.76182 | -77.95580 | 27054 ft | 491 kts | 32° |
| 2026-05-06 17:52 | 36.78901 | -77.93000 | 27000 ft | 491 kts | 32° |
| 2026-05-06 17:52 | 36.81622 | -77.90409 | 27003 ft | 492 kts | 33° |
| 2026-05-06 17:52 | 36.84023 | -77.87335 | 26988 ft | 502 kts | 50° |
| 2026-05-06 17:53 | 36.85881 | -77.83624 | 27005 ft | 505 kts | 57° |
| 2026-05-06 17:53 | 36.87633 | -77.79831 | 27000 ft | 504 kts | 56° |
| 2026-05-06 17:53 | 36.89509 | -77.76135 | 26998 ft | 502 kts | 52° |
| 2026-05-06 17:53 | 36.91496 | -77.72635 | 26991 ft | 501 kts | 50° |
| 2026-05-06 17:54 | 36.93551 | -77.69110 | 26991 ft | 501 kts | 50° |
| 2026-05-06 17:54 | 36.95586 | -77.65569 | 26985 ft | 502 kts | 51° |
| 2026-05-06 17:54 | 36.97588 | -77.61984 | 26969 ft | 502 kts | 51° |
| 2026-05-06 17:54 | 36.99580 | -77.58395 | 26969 ft | 503 kts | 51° |
| 2026-05-06 17:55 | 37.01580 | -77.54792 | 26970 ft | 503 kts | 51° |
| 2026-05-06 17:55 | 37.03572 | -77.51197 | 26968 ft | 503 kts | 51° |
| 2026-05-06 17:55 | 37.05566 | -77.47591 | 26975 ft | 503 kts | 51° |
| 2026-05-06 17:55 | 37.07556 | -77.43988 | 26976 ft | 503 kts | 51° |
| 2026-05-06 17:56 | 37.09555 | -77.40383 | 26975 ft | 503 kts | 50° |
| 2026-05-06 17:56 | 37.11761 | -77.37021 | 26979 ft | 498 kts | 42° |
| 2026-05-06 17:56 | 37.14208 | -77.33982 | 26988 ft | 494 kts | 37° |
| 2026-05-06 17:56 | 37.16757 | -77.31096 | 26998 ft | 494 kts | 36° |
| 2026-05-06 17:57 | 37.19297 | -77.28194 | 26986 ft | 495 kts | 37° |
| 2026-05-06 17:57 | 37.21798 | -77.25205 | 26979 ft | 496 kts | 38° |
| 2026-05-06 17:57 | 37.24245 | -77.22244 | 26969 ft | 496 kts | 38° |
| 2026-05-06 17:57 | 37.26739 | -77.19231 | 26952 ft | 496 kts | 38° |
| 2026-05-06 17:58 | 37.29228 | -77.16225 | 26948 ft | 497 kts | 38° |
| 2026-05-06 17:58 | 37.31716 | -77.13214 | 26948 ft | 497 kts | 38° |
| 2026-05-06 17:58 | 37.34204 | -77.10199 | 26947 ft | 497 kts | 38° |
| 2026-05-06 17:58 | 37.36690 | -77.07179 | 26945 ft | 497 kts | 38° |
| 2026-05-06 17:59 | 37.39177 | -77.04158 | 26943 ft | 497 kts | 38° |
| 2026-05-06 17:59 | 37.41665 | -77.01135 | 26964 ft | 498 kts | 38° |
| 2026-05-06 17:59 | 37.44156 | -76.98111 | 26967 ft | 498 kts | 38° |
| 2026-05-06 17:59 | 37.46776 | -76.95307 | 26955 ft | 489 kts | 28° |
| 2026-05-06 18:00 | 37.49643 | -76.93048 | 26961 ft | 483 kts | 21° |
| 2026-05-06 18:00 | 37.52608 | -76.91101 | 26967 ft | 480 kts | 18° |
| 2026-05-06 18:00 | 37.55602 | -76.89250 | 26960 ft | 480 kts | 18° |
| 2026-05-06 18:00 | 37.58588 | -76.87361 | 26959 ft | 481 kts | 19° |
| 2026-05-06 18:01 | 37.61557 | -76.85401 | 26959 ft | 482 kts | 19° |
| 2026-05-06 18:01 | 37.64524 | -76.83424 | 26956 ft | 483 kts | 19° |
| 2026-05-06 18:01 | 37.67498 | -76.81443 | 26961 ft | 483 kts | 19° |
| 2026-05-06 18:01 | 37.70476 | -76.79460 | 26957 ft | 484 kts | 19° |
| 2026-05-06 18:02 | 37.73451 | -76.77473 | 26957 ft | 484 kts | 19° |
| 2026-05-06 18:02 | 37.76431 | -76.75482 | 26952 ft | 485 kts | 19° |
| 2026-05-06 18:02 | 37.79376 | -76.73511 | 26947 ft | 485 kts | 19° |
| 2026-05-06 18:02 | 37.82400 | -76.71487 | 26943 ft | 486 kts | 19° |
| 2026-05-06 18:03 | 37.85388 | -76.69490 | 26942 ft | 486 kts | 19° |
| 2026-05-06 18:03 | 37.88376 | -76.67490 | 26938 ft | 486 kts | 19° |
| 2026-05-06 18:03 | 37.91368 | -76.65494 | 26939 ft | 485 kts | 18° |
| 2026-05-06 18:03 | 37.94379 | -76.63574 | 26934 ft | 484 kts | 17° |
| 2026-05-06 18:04 | 37.97399 | -76.61669 | 26926 ft | 485 kts | 17° |
| 2026-05-06 18:04 | 38.00420 | -76.59751 | 26925 ft | 485 kts | 17° |
| 2026-05-06 18:04 | 38.03436 | -76.57835 | 26923 ft | 485 kts | 17° |
| 2026-05-06 18:04 | 38.06412 | -76.55942 | 26914 ft | 485 kts | 17° |
| 2026-05-06 18:05 | 38.09426 | -76.54024 | 26927 ft | 485 kts | 17° |
| 2026-05-06 18:05 | 38.12441 | -76.52105 | 26920 ft | 485 kts | 17° |
| 2026-05-06 18:05 | 38.15454 | -76.50185 | 26924 ft | 484 kts | 17° |
| 2026-05-06 18:05 | 38.18466 | -76.48264 | 26929 ft | 485 kts | 17° |
| 2026-05-06 18:06 | 38.21478 | -76.46339 | 26928 ft | 484 kts | 17° |
| 2026-05-06 18:06 | 38.24493 | -76.44411 | 26941 ft | 484 kts | 17° |
| 2026-05-06 18:06 | 38.27507 | -76.42483 | 26950 ft | 484 kts | 17° |
| 2026-05-06 18:06 | 38.30461 | -76.40353 | 26945 ft | 492 kts | 24° |
| 2026-05-06 18:07 | 38.33280 | -76.37818 | 26940 ft | 498 kts | 29° |
| 2026-05-06 18:07 | 38.35086 | -76.35988 | 26943 ft | 500 kts | 31° |
| 2026-05-06 18:07 | 38.37783 | -76.33181 | 26933 ft | 500 kts | 31° |
| 2026-05-06 18:07 | 38.40489 | -76.30408 | 26927 ft | 498 kts | 30° |
| 2026-05-06 18:08 | 38.43237 | -76.27709 | 26923 ft | 497 kts | 29° |
| 2026-05-06 18:08 | 38.45986 | -76.25034 | 26919 ft | 497 kts | 29° |
| 2026-05-06 18:08 | 38.48735 | -76.22340 | 26921 ft | 498 kts | 29° |
| 2026-05-06 18:08 | 38.51475 | -76.19643 | 26922 ft | 498 kts | 29° |
| 2026-05-06 18:09 | 38.54218 | -76.16953 | 26923 ft | 497 kts | 29° |
| 2026-05-06 18:09 | 38.56959 | -76.14256 | 26924 ft | 498 kts | 30° |
| 2026-05-06 18:09 | 38.59706 | -76.11552 | 26924 ft | 498 kts | 30° |
| 2026-05-06 18:09 | 38.62447 | -76.08854 | 26922 ft | 497 kts | 29° |
| 2026-05-06 18:10 | 38.65220 | -76.06227 | 26923 ft | 495 kts | 27° |
| 2026-05-06 18:10 | 38.68014 | -76.03650 | 26907 ft | 496 kts | 27° |
| 2026-05-06 18:10 | 38.70807 | -76.01051 | 26905 ft | 496 kts | 28° |
| 2026-05-06 18:10 | 38.73591 | -75.98440 | 26906 ft | 496 kts | 28° |
| 2026-05-06 18:11 | 38.76339 | -75.95865 | 26908 ft | 496 kts | 27° |
| 2026-05-06 18:11 | 38.79127 | -75.93256 | 26907 ft | 496 kts | 28° |
| 2026-05-06 18:11 | 38.81919 | -75.90638 | 26904 ft | 497 kts | 27° |
| 2026-05-06 18:11 | 38.84712 | -75.88019 | 26903 ft | 497 kts | 27° |
| 2026-05-06 18:12 | 38.87500 | -75.85398 | 26903 ft | 497 kts | 28° |
| 2026-05-06 18:12 | 38.90291 | -75.82776 | 26905 ft | 497 kts | 27° |
| 2026-05-06 18:12 | 38.93082 | -75.80149 | 26930 ft | 498 kts | 28° |
| 2026-05-06 18:12 | 38.95881 | -75.77518 | 26951 ft | 499 kts | 28° |
| 2026-05-06 18:13 | 38.98687 | -75.74870 | 26932 ft | 500 kts | 28° |
| 2026-05-06 18:13 | 39.01494 | -75.72206 | 26919 ft | 501 kts | 28° |
| 2026-05-06 18:13 | 39.04297 | -75.69549 | 26908 ft | 502 kts | 28° |
| 2026-05-06 18:13 | 39.07107 | -75.66888 | 26902 ft | 502 kts | 28° |
| 2026-05-06 18:14 | 39.09922 | -75.64216 | 26880 ft | 502 kts | 28° |
| 2026-05-06 18:14 | 39.12733 | -75.61550 | 26867 ft | 502 kts | 28° |
| 2026-05-06 18:14 | 39.15545 | -75.58875 | 26863 ft | 502 kts | 28° |
| 2026-05-06 18:14 | 39.18352 | -75.56207 | 26864 ft | 501 kts | 28° |
| 2026-05-06 18:15 | 39.21121 | -75.53572 | 26869 ft | 501 kts | 28° |
| 2026-05-06 18:15 | 39.23944 | -75.50927 | 26887 ft | 500 kts | 27° |
| 2026-05-06 18:15 | 39.26804 | -75.48384 | 26897 ft | 499 kts | 25° |
| 2026-05-06 18:15 | 39.29677 | -75.45861 | 26880 ft | 500 kts | 26° |
| 2026-05-06 18:16 | 39.32544 | -75.43319 | 26873 ft | 500 kts | 26° |
| 2026-05-06 18:16 | 39.35414 | -75.40761 | 26874 ft | 500 kts | 26° |
| 2026-05-06 18:16 | 39.38279 | -75.38210 | 26884 ft | 500 kts | 26° |
| 2026-05-06 18:16 | 39.41144 | -75.35660 | 26881 ft | 500 kts | 26° |
| 2026-05-06 18:17 | 39.44003 | -75.33113 | 26875 ft | 494 kts | 26° |
| 2026-05-06 18:17 | 39.46790 | -75.30632 | 26095 ft | 484 kts | 26° |
| 2026-05-06 18:17 | 39.49623 | -75.28140 | 24614 ft | 496 kts | 27° |
| 2026-05-06 18:17 | 39.52483 | -75.25619 | 23392 ft | 499 kts | 28° |
| 2026-05-06 18:18 | 39.55271 | -75.23005 | 22674 ft | 488 kts | 30° |
| 2026-05-06 18:18 | 39.57963 | -75.20416 | 22027 ft | 475 kts | 30° |
| 2026-05-06 18:18 | 39.60593 | -75.17881 | 21382 ft | 465 kts | 30° |
| 2026-05-06 18:18 | 39.63143 | -75.15469 | 20759 ft | 456 kts | 30° |
| 2026-05-06 18:19 | 39.65689 | -75.13077 | 20140 ft | 449 kts | 30° |
| 2026-05-06 18:19 | 39.68161 | -75.10628 | 19538 ft | 445 kts | 32° |
| 2026-05-06 18:19 | 39.70561 | -75.08138 | 18948 ft | 437 kts | 30° |
| 2026-05-06 18:19 | 39.73119 | -75.06120 | 18364 ft | 426 kts | 22° |
| 2026-05-06 18:20 | 39.75702 | -75.04275 | 17740 ft | 422 kts | 22° |
| 2026-05-06 18:20 | 39.78226 | -75.02339 | 17105 ft | 421 kts | 26° |
| 2026-05-06 18:20 | 39.80663 | -75.00270 | 16595 ft | 416 kts | 28° |
| 2026-05-06 18:20 | 39.83038 | -74.98167 | 16153 ft | 410 kts | 29° |
| 2026-05-06 18:21 | 39.85378 | -74.96087 | 15726 ft | 404 kts | 30° |
| 2026-05-06 18:21 | 39.87666 | -74.93998 | 15280 ft | 400 kts | 30° |
| 2026-05-06 18:21 | 39.89928 | -74.91936 | 14836 ft | 395 kts | 30° |
| 2026-05-06 18:21 | 39.92166 | -74.89894 | 14380 ft | 391 kts | 33° |
| 2026-05-06 18:22 | 39.94139 | -74.87527 | 13931 ft | 390 kts | 44° |
| 2026-05-06 18:22 | 39.95926 | -74.84879 | 13468 ft | 386 kts | 47° |
| 2026-05-06 18:22 | 39.97649 | -74.82241 | 13176 ft | 376 kts | 47° |
| 2026-05-06 18:22 | 39.99314 | -74.79682 | 13062 ft | 362 kts | 47° |